sensor_id;sensor_type;location;lat;lon;timestamp;temperature;humidity
55173;DHT22;41061;52.822;6.860;2022-08-01T00:00:12;18.90;99.90
55173;DHT22;41061;52.822;6.860;2022-08-01T00:02:38;19.00;99.90
55173;DHT22;41061;52.822;6.860;2022-08-01T00:05:08;19.10;99.90
55173;DHT22;41061;52.822;6.860;2022-08-01T00:07:34;18.90;99.90
55173;DHT22;41061;52.822;6.860;2022-08-01T00:10:02;18.90;99.90
55173;DHT22;41061;52.822;6.860;2022-08-01T00:12:28;18.90;99.90
55173;DHT22;41061;52.822;6.860;2022-08-01T00:14:53;18.80;99.90
55173;DHT22;41061;52.822;6.860;2022-08-01T00:17:19;18.90;99.90
55173;DHT22;41061;52.822;6.860;2022-08-01T00:19:45;19.00;99.90
55173;DHT22;41061;52.822;6.860;2022-08-01T00:22:11;18.80;99.90
55173;DHT22;41061;52.822;6.860;2022-08-01T00:24:36;18.80;99.90
55173;DHT22;41061;52.822;6.860;2022-08-01T00:27:02;18.70;99.90
55173;DHT22;41061;52.822;6.860;2022-08-01T00:29:28;18.70;99.90
55173;DHT22;41061;52.822;6.860;2022-08-01T00:31:53;18.70;99.90
55173;DHT22;41061;52.822;6.860;2022-08-01T00:34:19;18.70;99.90
55173;DHT22;41061;52.822;6.860;2022-08-01T00:36:45;18.70;99.90
55173;DHT22;41061;52.822;6.860;2022-08-01T00:39:12;18.70;99.90
55173;DHT22;41061;52.822;6.860;2022-08-01T00:41:37;18.70;99.90
55173;DHT22;41061;52.822;6.860;2022-08-01T00:44:05;18.70;99.90
55173;DHT22;41061;52.822;6.860;2022-08-01T00:46:31;18.70;99.90
55173;DHT22;41061;52.822;6.860;2022-08-01T00:48:58;18.70;99.90
55173;DHT22;41061;52.822;6.860;2022-08-01T00:51:24;18.70;99.90
55173;DHT22;41061;52.822;6.860;2022-08-01T00:53:51;18.70;99.90
55173;DHT22;41061;52.822;6.860;2022-08-01T00:56:17;18.60;99.90
55173;DHT22;41061;52.822;6.860;2022-08-01T00:58:43;18.70;99.90
55173;DHT22;41061;52.822;6.860;2022-08-01T01:01:09;18.80;99.90
55173;DHT22;41061;52.822;6.860;2022-08-01T01:03:35;18.80;99.90
55173;DHT22;41061;52.822;6.860;2022-08-01T01:08:43;18.70;99.90
55173;DHT22;41061;52.822;6.860;2022-08-01T01:11:25;18.80;99.90
55173;DHT22;41061;52.822;6.860;2022-08-01T01:14:04;18.60;99.90
55173;DHT22;41061;52.822;6.860;2022-08-01T01:16:36;18.60;99.90
55173;DHT22;41061;52.822;6.860;2022-08-01T01:19:05;18.70;99.90
55173;DHT22;41061;52.822;6.860;2022-08-01T01:24:53;18.80;99.90
55173;DHT22;41061;52.822;6.860;2022-08-01T01:27:38;18.70;99.90
55173;DHT22;41061;52.822;6.860;2022-08-01T01:30:05;18.70;99.90
55173;DHT22;41061;52.822;6.860;2022-08-01T01:32:39;18.70;99.90
55173;DHT22;41061;52.822;6.860;2022-08-01T01:35:10;18.70;99.90
55173;DHT22;41061;52.822;6.860;2022-08-01T01:37:40;18.70;99.90
55173;DHT22;41061;52.822;6.860;2022-08-01T01:40:09;18.60;99.90
55173;DHT22;41061;52.822;6.860;2022-08-01T01:42:37;18.70;99.90
55173;DHT22;41061;52.822;6.860;2022-08-01T01:45:04;18.70;99.90
55173;DHT22;41061;52.822;6.860;2022-08-01T01:47:32;18.60;99.90
55173;DHT22;41061;52.822;6.860;2022-08-01T01:50:00;18.60;99.90
55173;DHT22;41061;52.822;6.860;2022-08-01T01:52:28;18.60;99.90
55173;DHT22;41061;52.822;6.860;2022-08-01T01:54:56;18.60;99.90
55173;DHT22;41061;52.822;6.860;2022-08-01T01:57:22;18.60;99.90
55173;DHT22;41061;52.822;6.860;2022-08-01T01:59:49;18.60;99.90
55173;DHT22;41061;52.822;6.860;2022-08-01T02:02:16;18.60;99.90
55173;DHT22;41061;52.822;6.860;2022-08-01T02:04:45;18.60;99.90
55173;DHT22;41061;52.822;6.860;2022-08-01T02:07:16;18.50;99.90
55173;DHT22;41061;52.822;6.860;2022-08-01T02:09:43;18.60;99.90
55173;DHT22;41061;52.822;6.860;2022-08-01T02:12:12;18.50;99.90
55173;DHT22;41061;52.822;6.860;2022-08-01T02:14:38;18.50;99.90
55173;DHT22;41061;52.822;6.860;2022-08-01T02:17:10;18.50;99.90
55173;DHT22;41061;52.822;6.860;2022-08-01T02:19:36;18.50;99.90
55173;DHT22;41061;52.822;6.860;2022-08-01T02:22:16;18.40;99.90
55173;DHT22;41061;52.822;6.860;2022-08-01T02:24:55;18.40;99.90
55173;DHT22;41061;52.822;6.860;2022-08-01T02:30:23;18.30;99.90
55173;DHT22;41061;52.822;6.860;2022-08-01T02:32:57;18.30;99.90
55173;DHT22;41061;52.822;6.860;2022-08-01T02:35:31;18.30;99.90
55173;DHT22;41061;52.822;6.860;2022-08-01T02:37:58;18.60;99.90
55173;DHT22;41061;52.822;6.860;2022-08-01T02:40:28;18.30;99.90
55173;DHT22;41061;52.822;6.860;2022-08-01T02:42:56;18.40;99.90
55173;DHT22;41061;52.822;6.860;2022-08-01T02:45:25;18.40;99.90
55173;DHT22;41061;52.822;6.860;2022-08-01T02:47:53;18.30;99.90
55173;DHT22;41061;52.822;6.860;2022-08-01T02:50:22;18.50;99.90
55173;DHT22;41061;52.822;6.860;2022-08-01T02:52:50;18.30;99.90
55173;DHT22;41061;52.822;6.860;2022-08-01T02:55:18;18.40;99.90
55173;DHT22;41061;52.822;6.860;2022-08-01T02:57:46;18.20;99.90
55173;DHT22;41061;52.822;6.860;2022-08-01T03:00:15;18.50;99.90
55173;DHT22;41061;52.822;6.860;2022-08-01T03:02:41;18.10;99.90
55173;DHT22;41061;52.822;6.860;2022-08-01T03:05:10;18.40;99.90
55173;DHT22;41061;52.822;6.860;2022-08-01T03:07:38;18.20;99.90
55173;DHT22;41061;52.822;6.860;2022-08-01T03:10:05;18.20;99.90
55173;DHT22;41061;52.822;6.860;2022-08-01T03:12:33;18.10;99.90
55173;DHT22;41061;52.822;6.860;2022-08-01T03:15:00;18.30;99.90
55173;DHT22;41061;52.822;6.860;2022-08-01T03:17:28;18.10;99.90
55173;DHT22;41061;52.822;6.860;2022-08-01T03:19:54;18.00;99.90
55173;DHT22;41061;52.822;6.860;2022-08-01T03:22:23;18.00;99.90
55173;DHT22;41061;52.822;6.860;2022-08-01T03:24:52;18.00;99.90
55173;DHT22;41061;52.822;6.860;2022-08-01T03:27:19;17.90;99.90
55173;DHT22;41061;52.822;6.860;2022-08-01T03:29:48;18.00;99.90
55173;DHT22;41061;52.822;6.860;2022-08-01T03:32:15;18.10;99.90
55173;DHT22;41061;52.822;6.860;2022-08-01T03:34:43;17.70;99.90
55173;DHT22;41061;52.822;6.860;2022-08-01T03:37:14;17.80;99.90
55173;DHT22;41061;52.822;6.860;2022-08-01T03:39:58;17.70;99.90
55173;DHT22;41061;52.822;6.860;2022-08-01T03:42:33;17.70;99.90
55173;DHT22;41061;52.822;6.860;2022-08-01T03:45:06;17.80;99.90
55173;DHT22;41061;52.822;6.860;2022-08-01T03:47:35;17.70;99.90
55173;DHT22;41061;52.822;6.860;2022-08-01T03:52:32;17.80;99.90
55173;DHT22;41061;52.822;6.860;2022-08-01T03:55:03;17.70;99.90
55173;DHT22;41061;52.822;6.860;2022-08-01T03:57:31;17.60;99.90
55173;DHT22;41061;52.822;6.860;2022-08-01T04:00:00;17.50;99.90
55173;DHT22;41061;52.822;6.860;2022-08-01T04:02:27;17.40;99.90
55173;DHT22;41061;52.822;6.860;2022-08-01T04:04:54;17.40;99.90
55173;DHT22;41061;52.822;6.860;2022-08-01T04:07:28;17.40;99.90
55173;DHT22;41061;52.822;6.860;2022-08-01T04:09:54;17.40;99.90
55173;DHT22;41061;52.822;6.860;2022-08-01T04:12:20;17.40;99.90
55173;DHT22;41061;52.822;6.860;2022-08-01T04:14:46;17.40;99.90
55173;DHT22;41061;52.822;6.860;2022-08-01T04:17:12;17.30;99.90
55173;DHT22;41061;52.822;6.860;2022-08-01T04:19:39;17.30;99.90
55173;DHT22;41061;52.822;6.860;2022-08-01T04:22:05;17.30;99.90
55173;DHT22;41061;52.822;6.860;2022-08-01T04:24:33;17.50;99.90
55173;DHT22;41061;52.822;6.860;2022-08-01T04:27:02;17.30;99.90
55173;DHT22;41061;52.822;6.860;2022-08-01T04:31:59;17.60;99.90
55173;DHT22;41061;52.822;6.860;2022-08-01T04:34:28;17.60;99.90
55173;DHT22;41061;52.822;6.860;2022-08-01T04:39:26;17.30;99.90
55173;DHT22;41061;52.822;6.860;2022-08-01T04:41:54;17.60;99.90
55173;DHT22;41061;52.822;6.860;2022-08-01T04:44:23;17.60;99.90
55173;DHT22;41061;52.822;6.860;2022-08-01T04:49:22;17.60;99.90
55173;DHT22;41061;52.822;6.860;2022-08-01T04:54:24;17.60;99.90
55173;DHT22;41061;52.822;6.860;2022-08-01T04:56:50;17.90;99.90
55173;DHT22;41061;52.822;6.860;2022-08-01T04:59:19;17.60;99.90
55173;DHT22;41061;52.822;6.860;2022-08-01T05:02:03;17.80;99.90
55173;DHT22;41061;52.822;6.860;2022-08-01T05:04:29;17.60;99.90
55173;DHT22;41061;52.822;6.860;2022-08-01T05:06:54;17.50;99.90
55173;DHT22;41061;52.822;6.860;2022-08-01T05:09:20;17.70;99.90
55173;DHT22;41061;52.822;6.860;2022-08-01T05:11:46;17.70;99.90
55173;DHT22;41061;52.822;6.860;2022-08-01T05:14:11;17.60;99.90
55173;DHT22;41061;52.822;6.860;2022-08-01T05:16:37;17.70;99.90
55173;DHT22;41061;52.822;6.860;2022-08-01T05:19:02;17.60;99.90
55173;DHT22;41061;52.822;6.860;2022-08-01T05:26:23;17.40;99.90
55173;DHT22;41061;52.822;6.860;2022-08-01T05:28:49;17.40;99.90
55173;DHT22;41061;52.822;6.860;2022-08-01T05:31:14;17.40;99.90
55173;DHT22;41061;52.822;6.860;2022-08-01T05:33:40;17.30;99.90
55173;DHT22;41061;52.822;6.860;2022-08-01T05:36:06;17.20;99.90
55173;DHT22;41061;52.822;6.860;2022-08-01T05:38:31;17.20;99.90
55173;DHT22;41061;52.822;6.860;2022-08-01T05:40:57;17.10;99.90
55173;DHT22;41061;52.822;6.860;2022-08-01T05:43:23;17.10;99.90
55173;DHT22;41061;52.822;6.860;2022-08-01T05:45:48;17.10;99.90
55173;DHT22;41061;52.822;6.860;2022-08-01T05:48:14;17.00;99.90
55173;DHT22;41061;52.822;6.860;2022-08-01T05:50:40;16.90;99.90
55173;DHT22;41061;52.822;6.860;2022-08-01T05:53:05;16.90;99.90
55173;DHT22;41061;52.822;6.860;2022-08-01T05:55:31;17.00;99.90
55173;DHT22;41061;52.822;6.860;2022-08-01T05:57:57;16.90;99.90
55173;DHT22;41061;52.822;6.860;2022-08-01T06:00:22;17.00;99.90
55173;DHT22;41061;52.822;6.860;2022-08-01T06:02:48;17.10;99.90
55173;DHT22;41061;52.822;6.860;2022-08-01T06:05:14;17.00;99.90
55173;DHT22;41061;52.822;6.860;2022-08-01T06:07:39;17.10;99.90
55173;DHT22;41061;52.822;6.860;2022-08-01T06:10:06;17.20;99.90
55173;DHT22;41061;52.822;6.860;2022-08-01T06:12:33;17.30;99.90
55173;DHT22;41061;52.822;6.860;2022-08-01T06:14:59;17.30;99.90
55173;DHT22;41061;52.822;6.860;2022-08-01T06:17:25;17.20;99.90
55173;DHT22;41061;52.822;6.860;2022-08-01T06:19:51;17.30;99.90
55173;DHT22;41061;52.822;6.860;2022-08-01T06:22:16;17.20;99.90
55173;DHT22;41061;52.822;6.860;2022-08-01T06:24:42;17.20;99.90
55173;DHT22;41061;52.822;6.860;2022-08-01T06:27:07;17.20;99.90
55173;DHT22;41061;52.822;6.860;2022-08-01T06:29:33;17.20;99.90
55173;DHT22;41061;52.822;6.860;2022-08-01T06:32:00;17.20;99.90
55173;DHT22;41061;52.822;6.860;2022-08-01T06:34:26;17.20;99.90
55173;DHT22;41061;52.822;6.860;2022-08-01T06:36:51;17.10;99.90
55173;DHT22;41061;52.822;6.860;2022-08-01T06:39:17;17.20;99.90
55173;DHT22;41061;52.822;6.860;2022-08-01T06:41:45;17.30;99.90
55173;DHT22;41061;52.822;6.860;2022-08-01T06:44:14;17.30;99.90
55173;DHT22;41061;52.822;6.860;2022-08-01T06:46:40;17.30;99.90
55173;DHT22;41061;52.822;6.860;2022-08-01T06:51:31;17.30;99.90
55173;DHT22;41061;52.822;6.860;2022-08-01T06:53:57;17.40;99.90
55173;DHT22;41061;52.822;6.860;2022-08-01T06:56:23;17.50;99.90
55173;DHT22;41061;52.822;6.860;2022-08-01T06:58:51;17.60;99.90
55173;DHT22;41061;52.822;6.860;2022-08-01T07:01:17;17.60;99.90
55173;DHT22;41061;52.822;6.860;2022-08-01T07:03:43;17.60;99.90
55173;DHT22;41061;52.822;6.860;2022-08-01T07:06:08;17.70;99.90
55173;DHT22;41061;52.822;6.860;2022-08-01T07:08:35;17.70;99.90
55173;DHT22;41061;52.822;6.860;2022-08-01T07:11:00;17.70;99.90
55173;DHT22;41061;52.822;6.860;2022-08-01T07:13:27;17.70;99.90
55173;DHT22;41061;52.822;6.860;2022-08-01T07:15:53;17.70;99.90
55173;DHT22;41061;52.822;6.860;2022-08-01T07:18:19;17.70;99.90
55173;DHT22;41061;52.822;6.860;2022-08-01T07:20:45;17.90;99.90
55173;DHT22;41061;52.822;6.860;2022-08-01T07:23:12;17.90;99.90
55173;DHT22;41061;52.822;6.860;2022-08-01T07:25:38;17.80;99.90
55173;DHT22;41061;52.822;6.860;2022-08-01T07:28:05;17.90;99.90
55173;DHT22;41061;52.822;6.860;2022-08-01T07:30:30;18.20;99.90
55173;DHT22;41061;52.822;6.860;2022-08-01T07:32:56;18.10;99.90
55173;DHT22;41061;52.822;6.860;2022-08-01T07:35:22;18.10;99.90
55173;DHT22;41061;52.822;6.860;2022-08-01T07:37:47;18.10;99.90
55173;DHT22;41061;52.822;6.860;2022-08-01T07:40:13;18.00;99.90
55173;DHT22;41061;52.822;6.860;2022-08-01T07:42:39;18.20;99.90
55173;DHT22;41061;52.822;6.860;2022-08-01T07:45:09;18.40;99.90
55173;DHT22;41061;52.822;6.860;2022-08-01T07:47:35;18.00;99.90
55173;DHT22;41061;52.822;6.860;2022-08-01T07:50:03;18.20;99.90
55173;DHT22;41061;52.822;6.860;2022-08-01T07:52:30;17.90;99.90
55173;DHT22;41061;52.822;6.860;2022-08-01T07:54:56;18.10;99.90
55173;DHT22;41061;52.822;6.860;2022-08-01T07:57:23;18.00;99.90
55173;DHT22;41061;52.822;6.860;2022-08-01T07:59:49;18.10;99.90
55173;DHT22;41061;52.822;6.860;2022-08-01T08:02:15;18.10;99.90
55173;DHT22;41061;52.822;6.860;2022-08-01T08:04:41;18.20;99.90
55173;DHT22;41061;52.822;6.860;2022-08-01T08:07:07;18.10;99.90
55173;DHT22;41061;52.822;6.860;2022-08-01T08:09:32;18.10;99.90
55173;DHT22;41061;52.822;6.860;2022-08-01T08:11:58;18.20;99.90
55173;DHT22;41061;52.822;6.860;2022-08-01T08:14:24;18.10;99.90
55173;DHT22;41061;52.822;6.860;2022-08-01T08:16:50;18.30;99.90
55173;DHT22;41061;52.822;6.860;2022-08-01T08:19:16;18.20;99.90
55173;DHT22;41061;52.822;6.860;2022-08-01T08:21:42;18.00;99.90
55173;DHT22;41061;52.822;6.860;2022-08-01T08:24:09;18.10;99.90
55173;DHT22;41061;52.822;6.860;2022-08-01T08:29:14;18.40;99.90
55173;DHT22;41061;52.822;6.860;2022-08-01T08:31:40;18.10;99.90
55173;DHT22;41061;52.822;6.860;2022-08-01T08:34:06;18.20;99.90
55173;DHT22;41061;52.822;6.860;2022-08-01T08:36:32;18.20;99.90
55173;DHT22;41061;52.822;6.860;2022-08-01T08:38:59;18.20;99.90
55173;DHT22;41061;52.822;6.860;2022-08-01T08:41:30;18.30;99.90
55173;DHT22;41061;52.822;6.860;2022-08-01T08:43:56;18.20;99.90
55173;DHT22;41061;52.822;6.860;2022-08-01T08:46:28;18.30;99.90
55173;DHT22;41061;52.822;6.860;2022-08-01T08:48:58;18.40;99.90
55173;DHT22;41061;52.822;6.860;2022-08-01T08:51:26;18.40;99.90
55173;DHT22;41061;52.822;6.860;2022-08-01T08:53:56;18.50;99.90
55173;DHT22;41061;52.822;6.860;2022-08-01T08:56:24;18.60;99.90
55173;DHT22;41061;52.822;6.860;2022-08-01T08:58:51;18.60;99.90
55173;DHT22;41061;52.822;6.860;2022-08-01T09:01:17;18.70;99.90
55173;DHT22;41061;52.822;6.860;2022-08-01T09:03:43;18.60;99.90
55173;DHT22;41061;52.822;6.860;2022-08-01T09:06:09;18.70;99.90
55173;DHT22;41061;52.822;6.860;2022-08-01T09:08:36;18.70;99.90
55173;DHT22;41061;52.822;6.860;2022-08-01T09:11:03;18.60;99.90
55173;DHT22;41061;52.822;6.860;2022-08-01T09:13:28;18.70;99.90
55173;DHT22;41061;52.822;6.860;2022-08-01T09:15:55;18.70;99.90
55173;DHT22;41061;52.822;6.860;2022-08-01T09:18:34;18.70;99.90
55173;DHT22;41061;52.822;6.860;2022-08-01T09:23:42;19.10;99.90
55173;DHT22;41061;52.822;6.860;2022-08-01T09:26:09;19.10;99.90
55173;DHT22;41061;52.822;6.860;2022-08-01T09:28:36;19.30;99.90
55173;DHT22;41061;52.822;6.860;2022-08-01T09:31:10;19.50;99.90
55173;DHT22;41061;52.822;6.860;2022-08-01T09:33:53;19.50;99.90
55173;DHT22;41061;52.822;6.860;2022-08-01T09:36:25;19.30;99.90
55173;DHT22;41061;52.822;6.860;2022-08-01T09:38:52;19.30;99.90
55173;DHT22;41061;52.822;6.860;2022-08-01T09:41:29;19.50;99.90
55173;DHT22;41061;52.822;6.860;2022-08-01T09:43:56;19.60;99.90
55173;DHT22;41061;52.822;6.860;2022-08-01T09:46:22;19.80;99.90
55173;DHT22;41061;52.822;6.860;2022-08-01T09:48:59;20.10;99.90
55173;DHT22;41061;52.822;6.860;2022-08-01T09:51:30;20.20;99.90
55173;DHT22;41061;52.822;6.860;2022-08-01T09:53:56;20.20;99.90
55173;DHT22;41061;52.822;6.860;2022-08-01T09:56:22;20.40;99.90
55173;DHT22;41061;52.822;6.860;2022-08-01T09:58:58;20.40;99.90
55173;DHT22;41061;52.822;6.860;2022-08-01T10:01:24;20.20;99.90
55173;DHT22;41061;52.822;6.860;2022-08-01T10:06:31;20.20;99.90
55173;DHT22;41061;52.822;6.860;2022-08-01T10:08:57;20.10;99.90
55173;DHT22;41061;52.822;6.860;2022-08-01T10:11:23;20.10;99.90
55173;DHT22;41061;52.822;6.860;2022-08-01T10:13:49;20.30;99.90
55173;DHT22;41061;52.822;6.860;2022-08-01T10:16:15;20.20;99.90
55173;DHT22;41061;52.822;6.860;2022-08-01T10:18:41;20.50;99.90
55173;DHT22;41061;52.822;6.860;2022-08-01T10:21:10;20.40;99.90
55173;DHT22;41061;52.822;6.860;2022-08-01T10:23:37;20.70;99.90
55173;DHT22;41061;52.822;6.860;2022-08-01T10:26:05;20.50;99.90
55173;DHT22;41061;52.822;6.860;2022-08-01T10:28:35;20.80;99.90
55173;DHT22;41061;52.822;6.860;2022-08-01T10:31:02;20.80;99.90
55173;DHT22;41061;52.822;6.860;2022-08-01T10:33:29;21.00;99.90
55173;DHT22;41061;52.822;6.860;2022-08-01T10:35:55;20.80;99.90
55173;DHT22;41061;52.822;6.860;2022-08-01T10:38:21;20.50;99.90
55173;DHT22;41061;52.822;6.860;2022-08-01T10:40:48;20.80;99.90
55173;DHT22;41061;52.822;6.860;2022-08-01T10:43:16;20.70;99.90
55173;DHT22;41061;52.822;6.860;2022-08-01T10:45:45;20.70;99.90
55173;DHT22;41061;52.822;6.860;2022-08-01T10:50:53;20.80;99.90
55173;DHT22;41061;52.822;6.860;2022-08-01T10:53:24;20.90;99.90
55173;DHT22;41061;52.822;6.860;2022-08-01T11:01:17;19.30;99.90
55173;DHT22;41061;52.822;6.860;2022-08-01T11:04:05;20.80;99.90
55173;DHT22;41061;52.822;6.860;2022-08-01T11:11:58;20.70;99.90
55173;DHT22;41061;52.822;6.860;2022-08-01T11:14:24;21.00;99.90
55173;DHT22;41061;52.822;6.860;2022-08-01T11:16:50;21.30;99.90
55173;DHT22;41061;52.822;6.860;2022-08-01T11:19:15;21.50;99.90
55173;DHT22;41061;52.822;6.860;2022-08-01T11:27:20;20.80;99.90
55173;DHT22;41061;52.822;6.860;2022-08-01T11:32:55;21.30;99.90
55173;DHT22;41061;52.822;6.860;2022-08-01T11:35:24;21.30;99.90
55173;DHT22;41061;52.822;6.860;2022-08-01T11:37:53;21.40;99.90
55173;DHT22;41061;52.822;6.860;2022-08-01T11:40:25;21.50;99.90
55173;DHT22;41061;52.822;6.860;2022-08-01T11:45:55;21.50;99.90
55173;DHT22;41061;52.822;6.860;2022-08-01T11:48:22;21.60;99.90
55173;DHT22;41061;52.822;6.860;2022-08-01T11:50:49;21.30;99.90
55173;DHT22;41061;52.822;6.860;2022-08-01T11:53:15;21.10;99.90
55173;DHT22;41061;52.822;6.860;2022-08-01T11:55:51;21.10;99.90
55173;DHT22;41061;52.822;6.860;2022-08-01T12:00:56;21.50;99.90
55173;DHT22;41061;52.822;6.860;2022-08-01T12:03:26;21.60;99.90
55173;DHT22;41061;52.822;6.860;2022-08-01T12:05:56;22.00;99.90
55173;DHT22;41061;52.822;6.860;2022-08-01T12:08:27;21.90;99.90
55173;DHT22;41061;52.822;6.860;2022-08-01T12:10:53;21.80;99.90
55173;DHT22;41061;52.822;6.860;2022-08-01T12:13:19;21.70;99.90
55173;DHT22;41061;52.822;6.860;2022-08-01T12:15:46;21.70;99.90
55173;DHT22;41061;52.822;6.860;2022-08-01T12:18:13;21.80;99.90
55173;DHT22;41061;52.822;6.860;2022-08-01T12:20:41;22.00;99.90
55173;DHT22;41061;52.822;6.860;2022-08-01T12:23:12;22.00;99.90
55173;DHT22;41061;52.822;6.860;2022-08-01T12:25:39;22.10;99.90
55173;DHT22;41061;52.822;6.860;2022-08-01T12:28:08;21.80;99.90
55173;DHT22;41061;52.822;6.860;2022-08-01T12:30:36;21.80;99.90
55173;DHT22;41061;52.822;6.860;2022-08-01T12:33:09;22.10;99.90
55173;DHT22;41061;52.822;6.860;2022-08-01T12:35:37;22.20;99.90
55173;DHT22;41061;52.822;6.860;2022-08-01T12:55:26;21.90;99.90
55173;DHT22;41061;52.822;6.860;2022-08-01T12:58:08;22.10;99.90
55173;DHT22;41061;52.822;6.860;2022-08-01T13:00:35;22.50;99.90
55173;DHT22;41061;52.822;6.860;2022-08-01T13:18:25;22.20;99.90
55173;DHT22;41061;52.822;6.860;2022-08-01T13:21:14;22.40;99.90
55173;DHT22;41061;52.822;6.860;2022-08-01T13:23:42;22.50;99.90
55173;DHT22;41061;52.822;6.860;2022-08-01T13:26:45;22.50;99.90
55173;DHT22;41061;52.822;6.860;2022-08-01T13:29:11;22.60;99.90
55173;DHT22;41061;52.822;6.860;2022-08-01T13:31:38;22.80;99.90
55173;DHT22;41061;52.822;6.860;2022-08-01T13:34:07;23.00;99.90
55173;DHT22;41061;52.822;6.860;2022-08-01T13:36:34;23.20;99.90
55173;DHT22;41061;52.822;6.860;2022-08-01T13:39:04;23.30;99.90
55173;DHT22;41061;52.822;6.860;2022-08-01T13:41:49;23.40;99.90
55173;DHT22;41061;52.822;6.860;2022-08-01T13:44:17;23.70;99.90
55173;DHT22;41061;52.822;6.860;2022-08-01T13:46:44;23.90;99.90
55173;DHT22;41061;52.822;6.860;2022-08-01T13:49:12;23.90;99.90
55173;DHT22;41061;52.822;6.860;2022-08-01T13:51:38;24.00;99.90
55173;DHT22;41061;52.822;6.860;2022-08-01T13:54:08;24.10;99.90
55173;DHT22;41061;52.822;6.860;2022-08-01T13:56:34;24.00;99.90
55173;DHT22;41061;52.822;6.860;2022-08-01T13:59:03;24.10;99.90
55173;DHT22;41061;52.822;6.860;2022-08-01T14:01:28;24.30;99.90
55173;DHT22;41061;52.822;6.860;2022-08-01T14:03:54;24.60;99.90
55173;DHT22;41061;52.822;6.860;2022-08-01T14:06:19;24.80;99.90
55173;DHT22;41061;52.822;6.860;2022-08-01T14:08:48;24.90;99.90
55173;DHT22;41061;52.822;6.860;2022-08-01T14:11:13;25.00;99.90
55173;DHT22;41061;52.822;6.860;2022-08-01T14:13:39;25.20;99.90
55173;DHT22;41061;52.822;6.860;2022-08-01T14:16:06;25.30;99.90
55173;DHT22;41061;52.822;6.860;2022-08-01T14:18:32;25.30;99.90
55173;DHT22;41061;52.822;6.860;2022-08-01T14:20:58;25.50;99.90
55173;DHT22;41061;52.822;6.860;2022-08-01T14:23:24;25.60;99.90
55173;DHT22;41061;52.822;6.860;2022-08-01T14:25:49;25.80;99.90
55173;DHT22;41061;52.822;6.860;2022-08-01T14:28:15;25.70;96.50
55173;DHT22;41061;52.822;6.860;2022-08-01T14:30:41;25.60;96.90
55173;DHT22;41061;52.822;6.860;2022-08-01T14:33:08;25.40;95.30
55173;DHT22;41061;52.822;6.860;2022-08-01T14:35:34;25.00;95.10
55173;DHT22;41061;52.822;6.860;2022-08-01T14:38:00;24.70;96.40
55173;DHT22;41061;52.822;6.860;2022-08-01T14:40:26;24.40;97.80
55173;DHT22;41061;52.822;6.860;2022-08-01T14:42:52;24.20;97.80
55173;DHT22;41061;52.822;6.860;2022-08-01T14:45:17;24.10;98.90
55173;DHT22;41061;52.822;6.860;2022-08-01T14:47:43;24.20;98.40
55173;DHT22;41061;52.822;6.860;2022-08-01T14:50:11;24.30;98.40
55173;DHT22;41061;52.822;6.860;2022-08-01T14:52:38;24.30;98.20
55173;DHT22;41061;52.822;6.860;2022-08-01T14:55:08;24.60;98.70
55173;DHT22;41061;52.822;6.860;2022-08-01T14:57:35;24.60;98.20
55173;DHT22;41061;52.822;6.860;2022-08-01T15:00:02;24.80;97.70
55173;DHT22;41061;52.822;6.860;2022-08-01T15:02:28;24.90;98.10
55173;DHT22;41061;52.822;6.860;2022-08-01T15:04:54;25.00;98.40
55173;DHT22;41061;52.822;6.860;2022-08-01T15:07:20;25.10;95.90
55173;DHT22;41061;52.822;6.860;2022-08-01T15:09:45;25.00;94.70
55173;DHT22;41061;52.822;6.860;2022-08-01T15:12:11;24.90;95.10
55173;DHT22;41061;52.822;6.860;2022-08-01T15:14:37;24.60;95.30
55173;DHT22;41061;52.822;6.860;2022-08-01T15:19:45;24.10;95.80
55173;DHT22;41061;52.822;6.860;2022-08-01T15:22:11;24.00;96.90
55173;DHT22;41061;52.822;6.860;2022-08-01T15:24:37;24.00;97.10
55173;DHT22;41061;52.822;6.860;2022-08-01T15:27:04;24.10;97.20
55173;DHT22;41061;52.822;6.860;2022-08-01T15:29:29;24.00;97.40
55173;DHT22;41061;52.822;6.860;2022-08-01T15:31:55;23.80;97.30
55173;DHT22;41061;52.822;6.860;2022-08-01T15:34:21;23.70;97.50
55173;DHT22;41061;52.822;6.860;2022-08-01T15:36:48;23.60;98.00
55173;DHT22;41061;52.822;6.860;2022-08-01T15:39:14;23.40;98.00
55173;DHT22;41061;52.822;6.860;2022-08-01T15:41:40;23.20;97.80
55173;DHT22;41061;52.822;6.860;2022-08-01T15:44:06;23.00;96.40
55173;DHT22;41061;52.822;6.860;2022-08-01T15:46:32;22.70;96.80
55173;DHT22;41061;52.822;6.860;2022-08-01T15:49:02;22.60;97.90
55173;DHT22;41061;52.822;6.860;2022-08-01T15:51:29;22.60;98.20
55173;DHT22;41061;52.822;6.860;2022-08-01T15:53:55;22.60;97.60
55173;DHT22;41061;52.822;6.860;2022-08-01T15:56:21;22.60;98.00
55173;DHT22;41061;52.822;6.860;2022-08-01T15:58:46;22.40;96.70
55173;DHT22;41061;52.822;6.860;2022-08-01T16:01:12;22.40;97.60
55173;DHT22;41061;52.822;6.860;2022-08-01T16:03:38;22.40;97.60
55173;DHT22;41061;52.822;6.860;2022-08-01T16:06:03;22.40;98.10
55173;DHT22;41061;52.822;6.860;2022-08-01T16:08:29;22.50;98.70
55173;DHT22;41061;52.822;6.860;2022-08-01T16:10:55;22.60;98.80
55173;DHT22;41061;52.822;6.860;2022-08-01T16:13:20;22.70;99.00
55173;DHT22;41061;52.822;6.860;2022-08-01T16:15:49;22.70;97.90
55173;DHT22;41061;52.822;6.860;2022-08-01T16:18:18;22.60;97.10
55173;DHT22;41061;52.822;6.860;2022-08-01T16:20:44;22.50;97.80
55173;DHT22;41061;52.822;6.860;2022-08-01T16:23:10;22.40;98.00
55173;DHT22;41061;52.822;6.860;2022-08-01T16:25:36;22.30;98.40
55173;DHT22;41061;52.822;6.860;2022-08-01T16:28:02;22.20;98.90
55173;DHT22;41061;52.822;6.860;2022-08-01T16:30:28;22.20;99.00
55173;DHT22;41061;52.822;6.860;2022-08-01T16:32:53;22.10;97.80
55173;DHT22;41061;52.822;6.860;2022-08-01T16:35:19;21.90;98.20
55173;DHT22;41061;52.822;6.860;2022-08-01T16:37:45;21.80;99.00
55173;DHT22;41061;52.822;6.860;2022-08-01T16:40:11;21.70;99.20
55173;DHT22;41061;52.822;6.860;2022-08-01T16:42:39;21.70;99.40
55173;DHT22;41061;52.822;6.860;2022-08-01T16:45:05;21.60;99.90
55173;DHT22;41061;52.822;6.860;2022-08-01T16:47:34;21.50;99.90
55173;DHT22;41061;52.822;6.860;2022-08-01T16:50:00;21.40;99.90
55173;DHT22;41061;52.822;6.860;2022-08-01T16:52:28;21.40;99.90
55173;DHT22;41061;52.822;6.860;2022-08-01T16:54:54;21.30;99.90
55173;DHT22;41061;52.822;6.860;2022-08-01T16:57:21;21.30;99.90
55173;DHT22;41061;52.822;6.860;2022-08-01T16:59:47;21.30;99.90
55173;DHT22;41061;52.822;6.860;2022-08-01T17:02:12;21.20;99.90
55173;DHT22;41061;52.822;6.860;2022-08-01T17:04:38;21.20;99.90
55173;DHT22;41061;52.822;6.860;2022-08-01T17:07:04;21.20;99.90
55173;DHT22;41061;52.822;6.860;2022-08-01T17:09:29;21.10;99.90
55173;DHT22;41061;52.822;6.860;2022-08-01T17:11:55;21.00;99.90